sensor_id;sensor_type;location;lat;lon;timestamp;P1;durP1;ratioP1;P2;durP2;ratioP2
17059;SDS011;8646;49.716;9.266;2022-10-16T00:02:24;5.90;;;1.33;;
17059;SDS011;8646;49.716;9.266;2022-10-16T00:05:29;1.87;;;1.10;;
17059;SDS011;8646;49.716;9.266;2022-10-16T00:08:32;5.47;;;1.10;;
17059;SDS011;8646;49.716;9.266;2022-10-16T00:11:37;5.03;;;1.30;;
17059;SDS011;8646;49.716;9.266;2022-10-16T00:14:43;3.43;;;1.10;;
17059;SDS011;8646;49.716;9.266;2022-10-16T00:17:45;2.77;;;1.50;;
17059;SDS011;8646;49.716;9.266;2022-10-16T00:20:48;1.73;;;1.10;;
17059;SDS011;8646;49.716;9.266;2022-10-16T00:23:52;2.37;;;1.00;;
17059;SDS011;8646;49.716;9.266;2022-10-16T00:26:56;2.90;;;0.80;;
17059;SDS011;8646;49.716;9.266;2022-10-16T00:30:01;2.47;;;1.30;;
17059;SDS011;8646;49.716;9.266;2022-10-16T00:33:04;2.17;;;1.13;;
17059;SDS011;8646;49.716;9.266;2022-10-16T00:36:09;2.20;;;1.40;;
17059;SDS011;8646;49.716;9.266;2022-10-16T00:39:13;1.97;;;1.40;;
17059;SDS011;8646;49.716;9.266;2022-10-16T00:42:17;1.90;;;1.37;;
17059;SDS011;8646;49.716;9.266;2022-10-16T00:45:22;1.83;;;1.17;;
17059;SDS011;8646;49.716;9.266;2022-10-16T00:48:26;1.40;;;1.03;;
17059;SDS011;8646;49.716;9.266;2022-10-16T00:51:30;3.83;;;0.80;;
17059;SDS011;8646;49.716;9.266;2022-10-16T00:54:35;1.37;;;0.67;;
17059;SDS011;8646;49.716;9.266;2022-10-16T00:57:39;0.70;;;0.53;;
17059;SDS011;8646;49.716;9.266;2022-10-16T01:00:43;1.70;;;0.50;;
17059;SDS011;8646;49.716;9.266;2022-10-16T01:03:46;0.40;;;0.40;;
17059;SDS011;8646;49.716;9.266;2022-10-16T01:06:51;0.70;;;0.70;;
17059;SDS011;8646;49.716;9.266;2022-10-16T01:10:08;3.07;;;0.70;;
17059;SDS011;8646;49.716;9.266;2022-10-16T01:13:21;0.93;;;0.70;;
17059;SDS011;8646;49.716;9.266;2022-10-16T01:16:32;0.50;;;0.50;;
17059;SDS011;8646;49.716;9.266;2022-10-16T01:19:46;1.47;;;0.57;;
17059;SDS011;8646;49.716;9.266;2022-10-16T01:23:05;3.43;;;0.90;;
17059;SDS011;8646;49.716;9.266;2022-10-16T01:26:23;1.10;;;0.60;;
17059;SDS011;8646;49.716;9.266;2022-10-16T01:29:39;1.30;;;0.90;;
17059;SDS011;8646;49.716;9.266;2022-10-16T01:32:49;2.97;;;1.60;;
17059;SDS011;8646;49.716;9.266;2022-10-16T01:35:56;2.00;;;1.40;;
17059;SDS011;8646;49.716;9.266;2022-10-16T01:39:05;2.13;;;0.93;;
17059;SDS011;8646;49.716;9.266;2022-10-16T01:42:14;4.03;;;0.90;;
17059;SDS011;8646;49.716;9.266;2022-10-16T01:45:21;1.53;;;1.00;;
17059;SDS011;8646;49.716;9.266;2022-10-16T01:48:24;3.23;;;1.93;;
17059;SDS011;8646;49.716;9.266;2022-10-16T01:51:27;3.77;;;1.13;;
17059;SDS011;8646;49.716;9.266;2022-10-16T01:54:32;1.20;;;1.10;;
17059;SDS011;8646;49.716;9.266;2022-10-16T01:57:38;1.93;;;0.90;;
17059;SDS011;8646;49.716;9.266;2022-10-16T02:00:46;1.00;;;0.80;;
17059;SDS011;8646;49.716;9.266;2022-10-16T02:03:51;0.70;;;0.70;;
17059;SDS011;8646;49.716;9.266;2022-10-16T02:06:58;2.33;;;0.80;;
17059;SDS011;8646;49.716;9.266;2022-10-16T02:10:02;5.33;;;0.73;;
17059;SDS011;8646;49.716;9.266;2022-10-16T02:13:06;3.57;;;1.00;;
17059;SDS011;8646;49.716;9.266;2022-10-16T02:16:13;3.17;;;0.90;;
17059;SDS011;8646;49.716;9.266;2022-10-16T02:19:16;1.23;;;1.00;;
17059;SDS011;8646;49.716;9.266;2022-10-16T02:22:22;1.93;;;1.00;;
17059;SDS011;8646;49.716;9.266;2022-10-16T02:25:30;4.07;;;1.00;;
17059;SDS011;8646;49.716;9.266;2022-10-16T02:28:35;4.90;;;1.10;;
17059;SDS011;8646;49.716;9.266;2022-10-16T02:31:45;1.17;;;0.93;;
17059;SDS011;8646;49.716;9.266;2022-10-16T02:34:52;2.23;;;0.90;;
17059;SDS011;8646;49.716;9.266;2022-10-16T02:37:56;4.40;;;1.10;;
17059;SDS011;8646;49.716;9.266;2022-10-16T02:41:00;1.87;;;1.00;;
17059;SDS011;8646;49.716;9.266;2022-10-16T02:44:03;3.40;;;0.90;;
17059;SDS011;8646;49.716;9.266;2022-10-16T02:47:07;3.47;;;0.97;;
17059;SDS011;8646;49.716;9.266;2022-10-16T02:50:15;1.57;;;1.03;;
17059;SDS011;8646;49.716;9.266;2022-10-16T02:53:18;3.30;;;0.80;;
17059;SDS011;8646;49.716;9.266;2022-10-16T02:56:21;8.30;;;0.80;;
17059;SDS011;8646;49.716;9.266;2022-10-16T02:59:25;2.97;;;0.60;;
17059;SDS011;8646;49.716;9.266;2022-10-16T03:02:29;4.90;;;0.80;;
17059;SDS011;8646;49.716;9.266;2022-10-16T03:05:32;2.00;;;0.60;;
17059;SDS011;8646;49.716;9.266;2022-10-16T03:08:35;5.90;;;0.90;;
17059;SDS011;8646;49.716;9.266;2022-10-16T03:11:38;4.17;;;0.90;;
17059;SDS011;8646;49.716;9.266;2022-10-16T03:14:41;2.77;;;0.57;;
17059;SDS011;8646;49.716;9.266;2022-10-16T03:17:45;1.30;;;0.70;;
17059;SDS011;8646;49.716;9.266;2022-10-16T03:20:48;1.00;;;0.60;;
17059;SDS011;8646;49.716;9.266;2022-10-16T03:23:51;1.60;;;0.70;;
17059;SDS011;8646;49.716;9.266;2022-10-16T03:26:54;1.47;;;0.80;;
17059;SDS011;8646;49.716;9.266;2022-10-16T03:29:57;2.23;;;0.90;;
17059;SDS011;8646;49.716;9.266;2022-10-16T03:33:02;1.93;;;0.60;;
17059;SDS011;8646;49.716;9.266;2022-10-16T03:36:05;3.03;;;0.80;;
17059;SDS011;8646;49.716;9.266;2022-10-16T03:39:08;2.00;;;1.20;;
17059;SDS011;8646;49.716;9.266;2022-10-16T03:42:12;1.00;;;0.83;;
17059;SDS011;8646;49.716;9.266;2022-10-16T03:45:14;2.83;;;1.17;;
17059;SDS011;8646;49.716;9.266;2022-10-16T03:48:19;1.67;;;1.10;;
17059;SDS011;8646;49.716;9.266;2022-10-16T03:51:21;7.87;;;1.20;;
17059;SDS011;8646;49.716;9.266;2022-10-16T03:54:25;4.20;;;1.63;;
17059;SDS011;8646;49.716;9.266;2022-10-16T03:57:28;6.83;;;1.30;;
17059;SDS011;8646;49.716;9.266;2022-10-16T04:00:31;4.33;;;1.20;;
17059;SDS011;8646;49.716;9.266;2022-10-16T04:03:35;5.37;;;1.23;;
17059;SDS011;8646;49.716;9.266;2022-10-16T04:06:38;3.13;;;1.27;;
17059;SDS011;8646;49.716;9.266;2022-10-16T04:09:41;2.70;;;0.90;;
17059;SDS011;8646;49.716;9.266;2022-10-16T04:12:44;9.50;;;1.33;;
17059;SDS011;8646;49.716;9.266;2022-10-16T04:15:48;12.23;;;1.50;;
17059;SDS011;8646;49.716;9.266;2022-10-16T04:18:53;2.67;;;0.93;;
17059;SDS011;8646;49.716;9.266;2022-10-16T04:21:55;4.10;;;0.90;;
17059;SDS011;8646;49.716;9.266;2022-10-16T04:24:58;4.57;;;0.87;;
17059;SDS011;8646;49.716;9.266;2022-10-16T04:28:02;2.83;;;1.00;;
17059;SDS011;8646;49.716;9.266;2022-10-16T04:31:04;7.00;;;1.07;;
17059;SDS011;8646;49.716;9.266;2022-10-16T04:34:10;5.87;;;1.10;;
17059;SDS011;8646;49.716;9.266;2022-10-16T04:37:13;3.30;;;1.17;;
17059;SDS011;8646;49.716;9.266;2022-10-16T04:40:16;3.03;;;1.10;;
17059;SDS011;8646;49.716;9.266;2022-10-16T04:43:20;3.53;;;1.10;;
17059;SDS011;8646;49.716;9.266;2022-10-16T04:46:24;0.93;;;0.80;;
17059;SDS011;8646;49.716;9.266;2022-10-16T04:49:28;0.97;;;0.87;;
17059;SDS011;8646;49.716;9.266;2022-10-16T04:52:31;4.10;;;0.90;;
17059;SDS011;8646;49.716;9.266;2022-10-16T04:55:35;1.87;;;1.20;;
17059;SDS011;8646;49.716;9.266;2022-10-16T04:58:39;8.73;;;1.20;;
17059;SDS011;8646;49.716;9.266;2022-10-16T05:01:43;4.07;;;0.90;;
17059;SDS011;8646;49.716;9.266;2022-10-16T05:04:47;2.80;;;1.10;;
17059;SDS011;8646;49.716;9.266;2022-10-16T05:07:50;4.30;;;1.37;;
17059;SDS011;8646;49.716;9.266;2022-10-16T05:10:53;3.47;;;1.70;;
17059;SDS011;8646;49.716;9.266;2022-10-16T05:13:56;3.50;;;2.00;;
17059;SDS011;8646;49.716;9.266;2022-10-16T05:17:00;4.50;;;1.97;;
17059;SDS011;8646;49.716;9.266;2022-10-16T05:20:04;5.40;;;1.60;;
17059;SDS011;8646;49.716;9.266;2022-10-16T05:23:08;4.63;;;1.30;;
17059;SDS011;8646;49.716;9.266;2022-10-16T05:26:19;3.43;;;1.50;;
17059;SDS011;8646;49.716;9.266;2022-10-16T05:29:22;4.33;;;1.40;;
17059;SDS011;8646;49.716;9.266;2022-10-16T05:32:25;2.67;;;1.50;;
17059;SDS011;8646;49.716;9.266;2022-10-16T05:35:29;1.93;;;1.20;;
17059;SDS011;8646;49.716;9.266;2022-10-16T05:38:33;5.20;;;1.40;;
17059;SDS011;8646;49.716;9.266;2022-10-16T05:41:35;6.37;;;1.63;;
17059;SDS011;8646;49.716;9.266;2022-10-16T05:44:39;8.27;;;1.53;;
17059;SDS011;8646;49.716;9.266;2022-10-16T05:47:42;5.73;;;1.80;;
17059;SDS011;8646;49.716;9.266;2022-10-16T05:50:46;5.50;;;1.60;;
17059;SDS011;8646;49.716;9.266;2022-10-16T05:53:49;2.57;;;1.90;;
17059;SDS011;8646;49.716;9.266;2022-10-16T05:56:52;3.90;;;1.70;;
17059;SDS011;8646;49.716;9.266;2022-10-16T05:59:55;2.47;;;1.80;;
17059;SDS011;8646;49.716;9.266;2022-10-16T06:02:58;3.50;;;1.80;;
17059;SDS011;8646;49.716;9.266;2022-10-16T06:06:08;2.53;;;1.53;;
17059;SDS011;8646;49.716;9.266;2022-10-16T06:09:12;4.30;;;1.60;;
17059;SDS011;8646;49.716;9.266;2022-10-16T06:12:15;3.43;;;1.70;;
17059;SDS011;8646;49.716;9.266;2022-10-16T06:15:18;5.07;;;2.43;;
17059;SDS011;8646;49.716;9.266;2022-10-16T06:18:21;7.70;;;1.63;;
17059;SDS011;8646;49.716;9.266;2022-10-16T06:21:27;7.13;;;1.53;;
17059;SDS011;8646;49.716;9.266;2022-10-16T06:24:31;1.47;;;1.10;;
17059;SDS011;8646;49.716;9.266;2022-10-16T06:27:33;5.93;;;1.90;;
17059;SDS011;8646;49.716;9.266;2022-10-16T06:30:37;2.03;;;1.33;;
17059;SDS011;8646;49.716;9.266;2022-10-16T06:33:39;4.23;;;1.70;;
17059;SDS011;8646;49.716;9.266;2022-10-16T06:36:44;1.60;;;1.40;;
17059;SDS011;8646;49.716;9.266;2022-10-16T06:39:46;3.23;;;1.60;;
17059;SDS011;8646;49.716;9.266;2022-10-16T06:42:50;2.07;;;1.50;;
17059;SDS011;8646;49.716;9.266;2022-10-16T06:45:53;2.93;;;1.30;;
17059;SDS011;8646;49.716;9.266;2022-10-16T06:48:57;5.83;;;1.30;;
17059;SDS011;8646;49.716;9.266;2022-10-16T06:52:02;5.53;;;4.00;;
17059;SDS011;8646;49.716;9.266;2022-10-16T06:55:06;5.53;;;3.00;;
17059;SDS011;8646;49.716;9.266;2022-10-16T06:58:09;4.97;;;2.33;;
17059;SDS011;8646;49.716;9.266;2022-10-16T07:01:13;3.13;;;1.90;;
17059;SDS011;8646;49.716;9.266;2022-10-16T07:04:19;2.03;;;1.50;;
17059;SDS011;8646;49.716;9.266;2022-10-16T07:07:27;3.53;;;1.53;;
17059;SDS011;8646;49.716;9.266;2022-10-16T07:10:30;2.63;;;1.60;;
17059;SDS011;8646;49.716;9.266;2022-10-16T07:13:33;6.70;;;1.87;;
17059;SDS011;8646;49.716;9.266;2022-10-16T07:16:36;5.73;;;2.70;;
17059;SDS011;8646;49.716;9.266;2022-10-16T07:19:39;2.67;;;1.70;;
17059;SDS011;8646;49.716;9.266;2022-10-16T07:22:43;2.67;;;2.40;;
17059;SDS011;8646;49.716;9.266;2022-10-16T07:25:52;2.80;;;2.00;;
17059;SDS011;8646;49.716;9.266;2022-10-16T07:28:56;2.63;;;1.93;;
17059;SDS011;8646;49.716;9.266;2022-10-16T07:31:59;2.10;;;1.90;;
17059;SDS011;8646;49.716;9.266;2022-10-16T07:35:02;3.30;;;2.00;;
17059;SDS011;8646;49.716;9.266;2022-10-16T07:38:06;2.40;;;2.00;;
17059;SDS011;8646;49.716;9.266;2022-10-16T07:41:09;1.53;;;1.20;;
17059;SDS011;8646;49.716;9.266;2022-10-16T07:44:13;1.97;;;1.60;;
17059;SDS011;8646;49.716;9.266;2022-10-16T07:47:18;2.57;;;1.30;;
17059;SDS011;8646;49.716;9.266;2022-10-16T07:50:22;2.70;;;1.40;;
17059;SDS011;8646;49.716;9.266;2022-10-16T07:53:26;2.27;;;1.47;;
17059;SDS011;8646;49.716;9.266;2022-10-16T07:56:30;2.40;;;2.10;;
17059;SDS011;8646;49.716;9.266;2022-10-16T07:59:33;5.87;;;1.73;;
17059;SDS011;8646;49.716;9.266;2022-10-16T08:02:36;5.67;;;2.20;;
17059;SDS011;8646;49.716;9.266;2022-10-16T08:05:39;4.37;;;1.50;;
17059;SDS011;8646;49.716;9.266;2022-10-16T08:08:43;2.10;;;1.40;;
17059;SDS011;8646;49.716;9.266;2022-10-16T08:11:46;1.43;;;1.10;;
17059;SDS011;8646;49.716;9.266;2022-10-16T08:14:49;1.60;;;1.23;;
17059;SDS011;8646;49.716;9.266;2022-10-16T08:17:55;2.00;;;1.30;;
17059;SDS011;8646;49.716;9.266;2022-10-16T08:20:59;3.23;;;1.30;;
17059;SDS011;8646;49.716;9.266;2022-10-16T08:24:04;5.03;;;1.50;;
17059;SDS011;8646;49.716;9.266;2022-10-16T08:27:07;1.50;;;1.20;;
17059;SDS011;8646;49.716;9.266;2022-10-16T08:30:10;2.27;;;1.10;;
17059;SDS011;8646;49.716;9.266;2022-10-16T08:33:14;1.43;;;1.30;;
17059;SDS011;8646;49.716;9.266;2022-10-16T08:36:17;4.17;;;2.57;;
17059;SDS011;8646;49.716;9.266;2022-10-16T08:39:21;6.77;;;1.50;;
17059;SDS011;8646;49.716;9.266;2022-10-16T08:42:30;3.63;;;1.80;;
17059;SDS011;8646;49.716;9.266;2022-10-16T08:45:51;4.07;;;2.90;;
17059;SDS011;8646;49.716;9.266;2022-10-16T08:49:15;2.90;;;1.10;;
17059;SDS011;8646;49.716;9.266;2022-10-16T08:52:19;2.30;;;1.00;;
17059;SDS011;8646;49.716;9.266;2022-10-16T08:58:46;2.00;;;1.27;;
17059;SDS011;8646;49.716;9.266;2022-10-16T09:01:50;1.63;;;1.10;;
17059;SDS011;8646;49.716;9.266;2022-10-16T09:05:02;3.37;;;1.20;;
17059;SDS011;8646;49.716;9.266;2022-10-16T09:08:20;3.37;;;1.20;;
17059;SDS011;8646;49.716;9.266;2022-10-16T09:11:33;4.73;;;1.10;;
17059;SDS011;8646;49.716;9.266;2022-10-16T09:14:46;3.07;;;1.30;;
17059;SDS011;8646;49.716;9.266;2022-10-16T09:17:59;4.30;;;1.37;;
17059;SDS011;8646;49.716;9.266;2022-10-16T09:21:08;3.00;;;1.40;;
17059;SDS011;8646;49.716;9.266;2022-10-16T09:24:17;4.20;;;1.43;;
17059;SDS011;8646;49.716;9.266;2022-10-16T09:27:27;2.87;;;1.50;;
17059;SDS011;8646;49.716;9.266;2022-10-16T09:30:30;5.00;;;1.77;;
17059;SDS011;8646;49.716;9.266;2022-10-16T09:33:34;3.40;;;1.50;;
17059;SDS011;8646;49.716;9.266;2022-10-16T09:36:41;13.73;;;3.90;;
17059;SDS011;8646;49.716;9.266;2022-10-16T09:39:45;13.93;;;3.07;;
17059;SDS011;8646;49.716;9.266;2022-10-16T09:42:50;7.47;;;4.87;;
17059;SDS011;8646;49.716;9.266;2022-10-16T09:46:00;7.17;;;4.13;;
17059;SDS011;8646;49.716;9.266;2022-10-16T09:49:05;8.57;;;4.50;;
17059;SDS011;8646;49.716;9.266;2022-10-16T09:52:21;11.50;;;6.70;;
17059;SDS011;8646;49.716;9.266;2022-10-16T09:55:24;23.03;;;7.93;;
17059;SDS011;8646;49.716;9.266;2022-10-16T09:58:28;21.47;;;9.40;;
17059;SDS011;8646;49.716;9.266;2022-10-16T10:01:34;12.47;;;6.30;;
17059;SDS011;8646;49.716;9.266;2022-10-16T10:04:41;30.20;;;17.70;;
17059;SDS011;8646;49.716;9.266;2022-10-16T10:07:52;14.90;;;9.07;;
17059;SDS011;8646;49.716;9.266;2022-10-16T10:10:57;8.60;;;4.30;;
17059;SDS011;8646;49.716;9.266;2022-10-16T10:14:05;26.13;;;17.57;;
17059;SDS011;8646;49.716;9.266;2022-10-16T10:17:13;11.37;;;6.80;;
17059;SDS011;8646;49.716;9.266;2022-10-16T10:20:22;18.00;;;10.83;;
17059;SDS011;8646;49.716;9.266;2022-10-16T10:23:27;15.50;;;9.00;;
17059;SDS011;8646;49.716;9.266;2022-10-16T10:26:33;19.07;;;12.20;;
17059;SDS011;8646;49.716;9.266;2022-10-16T10:29:45;12.00;;;7.70;;
17059;SDS011;8646;49.716;9.266;2022-10-16T10:33:01;11.07;;;6.13;;
17059;SDS011;8646;49.716;9.266;2022-10-16T10:36:16;9.90;;;5.10;;
17059;SDS011;8646;49.716;9.266;2022-10-16T10:39:30;11.33;;;7.73;;
17059;SDS011;8646;49.716;9.266;2022-10-16T10:42:42;7.37;;;5.47;;
17059;SDS011;8646;49.716;9.266;2022-10-16T10:45:54;22.67;;;9.53;;
17059;SDS011;8646;49.716;9.266;2022-10-16T10:49:09;4.97;;;3.00;;
17059;SDS011;8646;49.716;9.266;2022-10-16T10:52:32;4.67;;;1.80;;
17059;SDS011;8646;49.716;9.266;2022-10-16T10:55:43;4.03;;;2.87;;
17059;SDS011;8646;49.716;9.266;2022-10-16T10:58:57;7.07;;;2.03;;
17059;SDS011;8646;49.716;9.266;2022-10-16T11:02:13;2.63;;;1.63;;
17059;SDS011;8646;49.716;9.266;2022-10-16T11:05:28;2.60;;;1.53;;
17059;SDS011;8646;49.716;9.266;2022-10-16T11:08:37;1.87;;;1.20;;
17059;SDS011;8646;49.716;9.266;2022-10-16T11:11:47;1.67;;;0.90;;
17059;SDS011;8646;49.716;9.266;2022-10-16T11:14:54;42.07;;;17.33;;
17059;SDS011;8646;49.716;9.266;2022-10-16T11:18:06;5.90;;;1.93;;
17059;SDS011;8646;49.716;9.266;2022-10-16T11:21:11;3.97;;;1.77;;
17059;SDS011;8646;49.716;9.266;2022-10-16T11:24:18;1.33;;;0.93;;
17059;SDS011;8646;49.716;9.266;2022-10-16T11:27:28;1.37;;;0.80;;
17059;SDS011;8646;49.716;9.266;2022-10-16T11:30:40;0.90;;;0.70;;
17059;SDS011;8646;49.716;9.266;2022-10-16T11:33:49;1.73;;;0.80;;
17059;SDS011;8646;49.716;9.266;2022-10-16T11:36:58;1.27;;;0.93;;
17059;SDS011;8646;49.716;9.266;2022-10-16T11:40:15;1.90;;;0.90;;
17059;SDS011;8646;49.716;9.266;2022-10-16T11:43:25;2.23;;;1.07;;
17059;SDS011;8646;49.716;9.266;2022-10-16T11:46:31;3.50;;;1.00;;
17059;SDS011;8646;49.716;9.266;2022-10-16T11:49:58;1.13;;;0.83;;
17059;SDS011;8646;49.716;9.266;2022-10-16T11:53:04;1.33;;;0.97;;
17059;SDS011;8646;49.716;9.266;2022-10-16T11:56:19;1.50;;;1.10;;
17059;SDS011;8646;49.716;9.266;2022-10-16T11:59:25;2.70;;;1.00;;
17059;SDS011;8646;49.716;9.266;2022-10-16T12:02:40;3.00;;;1.00;;
17059;SDS011;8646;49.716;9.266;2022-10-16T12:05:58;1.73;;;1.10;;
17059;SDS011;8646;49.716;9.266;2022-10-16T12:09:09;2.17;;;1.10;;
17059;SDS011;8646;49.716;9.266;2022-10-16T12:12:25;1.30;;;1.00;;
17059;SDS011;8646;49.716;9.266;2022-10-16T12:15:34;4.23;;;1.07;;
17059;SDS011;8646;49.716;9.266;2022-10-16T12:19:09;3.30;;;1.10;;
17059;SDS011;8646;49.716;9.266;2022-10-16T12:22:16;2.10;;;1.03;;
17059;SDS011;8646;49.716;9.266;2022-10-16T12:25:21;1.57;;;1.00;;
17059;SDS011;8646;49.716;9.266;2022-10-16T12:28:27;1.23;;;0.90;;
17059;SDS011;8646;49.716;9.266;2022-10-16T12:31:36;4.37;;;1.30;;
17059;SDS011;8646;49.716;9.266;2022-10-16T12:34:54;3.40;;;1.20;;
17059;SDS011;8646;49.716;9.266;2022-10-16T12:38:12;1.50;;;1.20;;
17059;SDS011;8646;49.716;9.266;2022-10-16T12:41:24;1.63;;;0.97;;
17059;SDS011;8646;49.716;9.266;2022-10-16T12:44:31;1.23;;;0.90;;
17059;SDS011;8646;49.716;9.266;2022-10-16T12:47:36;4.87;;;1.30;;
17059;SDS011;8646;49.716;9.266;2022-10-16T12:50:49;1.93;;;0.90;;
17059;SDS011;8646;49.716;9.266;2022-10-16T12:53:59;3.50;;;1.10;;
17059;SDS011;8646;49.716;9.266;2022-10-16T12:57:06;3.93;;;1.00;;
17059;SDS011;8646;49.716;9.266;2022-10-16T13:00:23;2.10;;;1.10;;
17059;SDS011;8646;49.716;9.266;2022-10-16T13:03:47;6.53;;;1.17;;
17059;SDS011;8646;49.716;9.266;2022-10-16T13:07:02;2.67;;;1.20;;
17059;SDS011;8646;49.716;9.266;2022-10-16T13:10:21;2.30;;;1.20;;
17059;SDS011;8646;49.716;9.266;2022-10-16T13:13:34;1.83;;;1.27;;
17059;SDS011;8646;49.716;9.266;2022-10-16T13:16:57;1.80;;;1.27;;
17059;SDS011;8646;49.716;9.266;2022-10-16T13:20:11;3.20;;;1.40;;
17059;SDS011;8646;49.716;9.266;2022-10-16T13:23:21;1.33;;;1.13;;
17059;SDS011;8646;49.716;9.266;2022-10-16T13:26:34;3.60;;;1.50;;
17059;SDS011;8646;49.716;9.266;2022-10-16T13:29:43;1.90;;;1.40;;
17059;SDS011;8646;49.716;9.266;2022-10-16T13:32:46;4.20;;;1.33;;
17059;SDS011;8646;49.716;9.266;2022-10-16T13:35:52;3.63;;;1.40;;
17059;SDS011;8646;49.716;9.266;2022-10-16T13:39:10;1.80;;;1.30;;
17059;SDS011;8646;49.716;9.266;2022-10-16T13:42:17;3.13;;;1.20;;
17059;SDS011;8646;49.716;9.266;2022-10-16T13:45:28;3.90;;;1.40;;
17059;SDS011;8646;49.716;9.266;2022-10-16T13:48:32;4.00;;;1.37;;
17059;SDS011;8646;49.716;9.266;2022-10-16T13:51:36;4.83;;;1.43;;
17059;SDS011;8646;49.716;9.266;2022-10-16T13:54:39;2.13;;;1.30;;
17059;SDS011;8646;49.716;9.266;2022-10-16T13:57:44;5.00;;;1.57;;
17059;SDS011;8646;49.716;9.266;2022-10-16T14:00:54;1.70;;;1.20;;
17059;SDS011;8646;49.716;9.266;2022-10-16T14:04:02;2.97;;;1.37;;
17059;SDS011;8646;49.716;9.266;2022-10-16T14:07:11;3.47;;;1.50;;
17059;SDS011;8646;49.716;9.266;2022-10-16T14:10:22;5.47;;;1.20;;
17059;SDS011;8646;49.716;9.266;2022-10-16T14:13:34;2.73;;;1.40;;
17059;SDS011;8646;49.716;9.266;2022-10-16T14:16:42;5.73;;;1.53;;
17059;SDS011;8646;49.716;9.266;2022-10-16T14:19:46;2.80;;;1.67;;
17059;SDS011;8646;49.716;9.266;2022-10-16T14:22:58;4.67;;;1.80;;
17059;SDS011;8646;49.716;9.266;2022-10-16T14:26:06;5.90;;;2.40;;
17059;SDS011;8646;49.716;9.266;2022-10-16T14:29:17;3.70;;;1.70;;
17059;SDS011;8646;49.716;9.266;2022-10-16T14:32:22;4.93;;;1.57;;
17059;SDS011;8646;49.716;9.266;2022-10-16T14:35:30;4.03;;;2.00;;
17059;SDS011;8646;49.716;9.266;2022-10-16T14:38:34;3.63;;;1.50;;
17059;SDS011;8646;49.716;9.266;2022-10-16T14:41:40;5.13;;;4.30;;
17059;SDS011;8646;49.716;9.266;2022-10-16T14:44:47;4.63;;;1.80;;
17059;SDS011;8646;49.716;9.266;2022-10-16T14:47:52;4.07;;;1.40;;
17059;SDS011;8646;49.716;9.266;2022-10-16T14:50:58;4.60;;;1.40;;
17059;SDS011;8646;49.716;9.266;2022-10-16T14:54:01;6.13;;;1.60;;
17059;SDS011;8646;49.716;9.266;2022-10-16T14:57:04;3.77;;;1.50;;
17059;SDS011;8646;49.716;9.266;2022-10-16T15:00:12;5.93;;;1.93;;
17059;SDS011;8646;49.716;9.266;2022-10-16T15:03:18;2.73;;;1.60;;
17059;SDS011;8646;49.716;9.266;2022-10-16T15:06:21;3.13;;;1.40;;
17059;SDS011;8646;49.716;9.266;2022-10-16T15:09:24;4.70;;;1.30;;
17059;SDS011;8646;49.716;9.266;2022-10-16T15:12:26;7.60;;;1.60;;
17059;SDS011;8646;49.716;9.266;2022-10-16T15:15:35;2.30;;;1.27;;
17059;SDS011;8646;49.716;9.266;2022-10-16T15:18:39;2.03;;;1.40;;
17059;SDS011;8646;49.716;9.266;2022-10-16T15:21:42;4.10;;;1.40;;
17059;SDS011;8646;49.716;9.266;2022-10-16T15:24:45;1.40;;;1.20;;
17059;SDS011;8646;49.716;9.266;2022-10-16T15:27:48;5.20;;;1.37;;
17059;SDS011;8646;49.716;9.266;2022-10-16T15:30:52;6.67;;;2.10;;
17059;SDS011;8646;49.716;9.266;2022-10-16T15:33:56;5.67;;;2.20;;
17059;SDS011;8646;49.716;9.266;2022-10-16T15:37:05;6.47;;;1.83;;
17059;SDS011;8646;49.716;9.266;2022-10-16T15:40:08;4.60;;;2.17;;
17059;SDS011;8646;49.716;9.266;2022-10-16T15:43:12;4.00;;;2.10;;
17059;SDS011;8646;49.716;9.266;2022-10-16T15:46:17;8.77;;;2.30;;
17059;SDS011;8646;49.716;9.266;2022-10-16T15:49:21;6.60;;;1.93;;
17059;SDS011;8646;49.716;9.266;2022-10-16T15:52:24;4.50;;;1.70;;
17059;SDS011;8646;49.716;9.266;2022-10-16T15:55:28;6.67;;;3.03;;
17059;SDS011;8646;49.716;9.266;2022-10-16T15:58:31;7.63;;;3.00;;
17059;SDS011;8646;49.716;9.266;2022-10-16T16:01:35;10.90;;;2.23;;
17059;SDS011;8646;49.716;9.266;2022-10-16T16:04:38;4.00;;;2.20;;
17059;SDS011;8646;49.716;9.266;2022-10-16T16:07:45;9.27;;;2.50;;
17059;SDS011;8646;49.716;9.266;2022-10-16T16:10:56;7.00;;;3.40;;
17059;SDS011;8646;49.716;9.266;2022-10-16T16:13:59;12.17;;;3.77;;
17059;SDS011;8646;49.716;9.266;2022-10-16T16:17:04;9.40;;;2.67;;
17059;SDS011;8646;49.716;9.266;2022-10-16T16:20:07;6.67;;;2.43;;
17059;SDS011;8646;49.716;9.266;2022-10-16T16:23:11;33.93;;;11.90;;
17059;SDS011;8646;49.716;9.266;2022-10-16T16:26:15;25.67;;;12.50;;
17059;SDS011;8646;49.716;9.266;2022-10-16T16:29:27;6.50;;;2.43;;
17059;SDS011;8646;49.716;9.266;2022-10-16T16:32:31;6.17;;;2.20;;
17059;SDS011;8646;49.716;9.266;2022-10-16T16:35:34;15.10;;;2.60;;
17059;SDS011;8646;49.716;9.266;2022-10-16T16:38:37;6.33;;;2.30;;
17059;SDS011;8646;49.716;9.266;2022-10-16T16:41:39;2.70;;;2.00;;
17059;SDS011;8646;49.716;9.266;2022-10-16T16:44:42;7.77;;;2.60;;
17059;SDS011;8646;49.716;9.266;2022-10-16T16:47:46;4.43;;;2.63;;
17059;SDS011;8646;49.716;9.266;2022-10-16T16:50:49;18.27;;;7.23;;
17059;SDS011;8646;49.716;9.266;2022-10-16T16:53:52;7.10;;;3.13;;
17059;SDS011;8646;49.716;9.266;2022-10-16T16:56:56;12.33;;;3.50;;
17059;SDS011;8646;49.716;9.266;2022-10-16T16:59:59;7.83;;;3.63;;
17059;SDS011;8646;49.716;9.266;2022-10-16T17:03:03;9.40;;;2.73;;
17059;SDS011;8646;49.716;9.266;2022-10-16T17:06:06;12.37;;;3.87;;
17059;SDS011;8646;49.716;9.266;2022-10-16T17:09:11;7.60;;;3.70;;
17059;SDS011;8646;49.716;9.266;2022-10-16T17:12:16;9.93;;;4.07;;
17059;SDS011;8646;49.716;9.266;2022-10-16T17:15:19;6.63;;;3.70;;
17059;SDS011;8646;49.716;9.266;2022-10-16T17:18:23;7.03;;;3.83;;
17059;SDS011;8646;49.716;9.266;2022-10-16T17:21:26;8.17;;;3.97;;
17059;SDS011;8646;49.716;9.266;2022-10-16T17:24:30;13.43;;;7.13;;
17059;SDS011;8646;49.716;9.266;2022-10-16T17:27:33;8.97;;;3.30;;
17059;SDS011;8646;49.716;9.266;2022-10-16T17:30:37;14.90;;;5.77;;
17059;SDS011;8646;49.716;9.266;2022-10-16T17:33:41;11.80;;;3.93;;
17059;SDS011;8646;49.716;9.266;2022-10-16T17:36:45;10.00;;;4.33;;
17059;SDS011;8646;49.716;9.266;2022-10-16T17:39:49;24.97;;;15.17;;
17059;SDS011;8646;49.716;9.266;2022-10-16T17:42:52;14.50;;;6.70;;
17059;SDS011;8646;49.716;9.266;2022-10-16T17:45:54;7.70;;;3.70;;
17059;SDS011;8646;49.716;9.266;2022-10-16T17:48:58;9.80;;;3.37;;
17059;SDS011;8646;49.716;9.266;2022-10-16T17:52:02;8.50;;;3.80;;
17059;SDS011;8646;49.716;9.266;2022-10-16T17:55:05;16.30;;;4.10;;
17059;SDS011;8646;49.716;9.266;2022-10-16T17:58:09;13.97;;;4.83;;
17059;SDS011;8646;49.716;9.266;2022-10-16T18:01:12;9.33;;;5.20;;
17059;SDS011;8646;49.716;9.266;2022-10-16T18:04:19;9.07;;;3.30;;
17059;SDS011;8646;49.716;9.266;2022-10-16T18:07:22;11.17;;;3.70;;
17059;SDS011;8646;49.716;9.266;2022-10-16T18:10:24;11.60;;;4.23;;
17059;SDS011;8646;49.716;9.266;2022-10-16T18:13:27;17.30;;;7.73;;
17059;SDS011;8646;49.716;9.266;2022-10-16T18:16:31;13.07;;;6.00;;
17059;SDS011;8646;49.716;9.266;2022-10-16T18:19:35;15.37;;;5.47;;
17059;SDS011;8646;49.716;9.266;2022-10-16T18:22:38;12.53;;;4.90;;
17059;SDS011;8646;49.716;9.266;2022-10-16T18:25:48;12.63;;;4.60;;
17059;SDS011;8646;49.716;9.266;2022-10-16T18:28:52;7.50;;;4.70;;
17059;SDS011;8646;49.716;9.266;2022-10-16T18:31:55;12.23;;;5.10;;
17059;SDS011;8646;49.716;9.266;2022-10-16T18:34:59;13.87;;;5.47;;
17059;SDS011;8646;49.716;9.266;2022-10-16T18:38:02;10.40;;;4.73;;
17059;SDS011;8646;49.716;9.266;2022-10-16T18:41:05;11.20;;;4.27;;
17059;SDS011;8646;49.716;9.266;2022-10-16T18:44:08;11.53;;;4.87;;
17059;SDS011;8646;49.716;9.266;2022-10-16T18:47:12;8.60;;;4.60;;
17059;SDS011;8646;49.716;9.266;2022-10-16T18:50:16;11.40;;;3.80;;
17059;SDS011;8646;49.716;9.266;2022-10-16T18:53:19;9.23;;;4.27;;
17059;SDS011;8646;49.716;9.266;2022-10-16T18:56:22;8.90;;;3.90;;
17059;SDS011;8646;49.716;9.266;2022-10-16T18:59:26;14.13;;;7.77;;
17059;SDS011;8646;49.716;9.266;2022-10-16T19:02:29;16.53;;;6.13;;